PWSweather.com
Personal Weather Stations
Station Observations
ISTOCKPO4
Cheadle HulmeGB SK8 6NZ

Cheadle HulmeGB SK8 6NZ

Lat: 53.363783, Lon: -2.1948438

Elevation: 261

Station Type: Davis VP2 with Daytime FARS

http://www.cheadlehulmeweather.co.uk

High Low Average
Temperature 48.0°F8.9°F 37.8°F3.2°F 43.5°F6.4°F
Dew Point 45.2°F7.3°F 35.6°F2.0°F 41.1°F5.1°F
Winds 10.0 mph -16.1 mph - 1.0 mph 1.6 mph 5.5 mph 8.9 mph
Wind Gusts 21.0 mph33.8 mph 3.0 mph4.8 mph 11.7 mph18.8 mph
Humidity 94% 86% 91%
Pressure 29.75 in1007.50 in 29.52 in999.70 in -
Precipitation 1.27 in32.30 in - -
Hour Temp Dew Point Humidity Winds Wind Gusts Pressure Precip Precip Rate Daily Precip Total
12:00 AM 46.9°F8.3°C 43.9°F6.6°C 89% 7.0 mph S11.3 kmh S 12.0 mph19.3 kmh 29.75 in1007.5 mb 0.00 in0.0 mm 0.00 in0.0 mm 0.00 in0.0 mm
12:15 AM 46.9°F8.3°C 43.9°F6.6°C 89% 7.0 mph S11.3 kmh S 14.0 mph22.5 kmh 29.75 in1007.5 mb 0.00 in0.0 mm 0.00 in0.0 mm 0.00 in0.0 mm
12:30 AM 47.1°F8.4°C 44.0°F6.7°C 89% 8.0 mph S12.9 kmh S 16.0 mph25.7 kmh 29.74 in1007.1 mb 0.00 in0.0 mm 0.00 in0.0 mm 0.00 in0.0 mm
12:45 AM 47.5°F8.6°C 44.4°F6.9°C 89% 8.0 mph SSW12.9 kmh SSW 14.0 mph22.5 kmh 29.73 in1006.8 mb 0.00 in0.0 mm 0.00 in0.0 mm 0.00 in0.0 mm
01:00 AM 47.5°F8.6°C 44.4°F6.9°C 89% 8.0 mph S12.9 kmh S 15.0 mph24.1 kmh 29.72 in1006.4 mb 0.00 in0.0 mm 0.00 in0.0 mm 0.00 in0.0 mm
01:15 AM 47.5°F8.6°C 44.7°F7.1°C 90% 9.0 mph S14.5 kmh S 16.0 mph25.7 kmh 29.72 in1006.4 mb 0.00 in0.0 mm 0.00 in0.0 mm 0.00 in0.0 mm
01:30 AM 47.5°F8.6°C 44.7°F7.1°C 90% 8.0 mph S12.9 kmh S 18.0 mph29.0 kmh 29.71 in1006.1 mb 0.00 in0.0 mm 0.00 in0.0 mm 0.00 in0.0 mm
01:45 AM 47.5°F8.6°C 44.7°F7.1°C 90% 7.0 mph S11.3 kmh S 14.0 mph22.5 kmh 29.71 in1006.1 mb 0.00 in0.0 mm 0.00 in0.0 mm 0.00 in0.0 mm
02:00 AM 47.5°F8.6°C 44.7°F7.1°C 90% 8.0 mph S12.9 kmh S 16.0 mph25.7 kmh 29.70 in1005.8 mb 0.00 in0.0 mm 0.00 in0.0 mm 0.00 in0.0 mm
02:15 AM 47.7°F8.7°C 45.2°F7.3°C 91% 9.0 mph S14.5 kmh S 14.0 mph22.5 kmh 29.69 in1005.4 mb 0.00 in0.0 mm 0.00 in0.0 mm 0.00 in0.0 mm
02:30 AM 47.5°F8.6°C 45.0°F7.2°C 91% 9.0 mph S14.5 kmh S 17.0 mph27.4 kmh 29.68 in1005.1 mb 0.00 in0.0 mm 0.00 in0.0 mm 0.00 in0.0 mm
02:45 AM 47.5°F8.6°C 45.0°F7.2°C 91% 7.0 mph S11.3 kmh S 13.0 mph20.9 kmh 29.67 in1004.7 mb 0.00 in0.0 mm 0.00 in0.0 mm 0.00 in0.0 mm
03:00 AM 47.3°F8.5°C 45.1°F7.3°C 92% 6.0 mph S9.7 kmh S 12.0 mph19.3 kmh 29.67 in1004.7 mb 0.00 in0.0 mm 0.00 in0.0 mm 0.00 in0.0 mm
03:15 AM 47.3°F8.5°C 45.1°F7.3°C 92% 6.0 mph S9.7 kmh S 12.0 mph19.3 kmh 29.66 in1004.4 mb 0.00 in0.0 mm 0.00 in0.0 mm 0.00 in0.0 mm
03:30 AM 47.3°F8.5°C 44.8°F7.1°C 91% 8.0 mph S12.9 kmh S 13.0 mph20.9 kmh 29.65 in1004.1 mb 0.00 in0.0 mm 0.00 in0.0 mm 0.00 in0.0 mm
03:45 AM 47.3°F8.5°C 44.8°F7.1°C 91% 7.0 mph S11.3 kmh S 15.0 mph24.1 kmh 29.64 in1003.7 mb 0.00 in0.0 mm 0.00 in0.0 mm 0.00 in0.0 mm
04:00 AM 47.7°F8.7°C 44.9°F7.2°C 90% 7.0 mph SSW11.3 kmh SSW 14.0 mph22.5 kmh 29.64 in1003.7 mb 0.00 in0.0 mm 0.00 in0.0 mm 0.00 in0.0 mm
04:15 AM 47.8°F8.8°C 44.5°F6.9°C 88% 9.0 mph SSW14.5 kmh SSW 19.0 mph30.6 kmh 29.63 in1003.4 mb 0.00 in0.0 mm 0.00 in0.0 mm 0.00 in0.0 mm
04:30 AM 48.0°F8.9°C 44.3°F6.8°C 87% 9.0 mph SSW14.5 kmh SSW 17.0 mph27.4 kmh 29.62 in1003.0 mb 0.00 in0.0 mm 0.00 in0.0 mm 0.00 in0.0 mm
04:45 AM 48.0°F8.9°C 44.0°F6.7°C 86% 9.0 mph SSW14.5 kmh SSW 20.0 mph32.2 kmh 29.62 in1003.0 mb 0.00 in0.0 mm 0.00 in0.0 mm 0.00 in0.0 mm
05:00 AM 48.0°F8.9°C 44.0°F6.7°C 86% 8.0 mph S12.9 kmh S 17.0 mph27.4 kmh 29.61 in1002.7 mb 0.00 in0.0 mm 0.00 in0.0 mm 0.00 in0.0 mm
05:15 AM 47.8°F8.8°C 44.2°F6.8°C 87% 8.0 mph S12.9 kmh S 17.0 mph27.4 kmh 29.60 in1002.4 mb 0.00 in0.0 mm 0.00 in0.0 mm 0.00 in0.0 mm
05:30 AM 47.7°F8.7°C 44.0°F6.7°C 87% 10.0 mph S16.1 kmh S 18.0 mph29.0 kmh 29.59 in1002.0 mb 0.00 in0.0 mm 0.00 in0.0 mm 0.00 in0.0 mm
05:45 AM 47.7°F8.7°C 44.0°F6.7°C 87% 9.0 mph S14.5 kmh S 18.0 mph29.0 kmh 29.58 in1001.7 mb 0.00 in0.0 mm 0.00 in0.0 mm 0.00 in0.0 mm
06:00 AM 47.5°F8.6°C 43.8°F6.6°C 87% 9.0 mph S14.5 kmh S 18.0 mph29.0 kmh 29.57 in1001.4 mb 0.00 in0.0 mm 0.00 in0.0 mm 0.00 in0.0 mm
06:15 AM 47.1°F8.4°C 43.4°F6.3°C 87% 8.0 mph S12.9 kmh S 15.0 mph24.1 kmh 29.57 in1001.4 mb 0.00 in0.0 mm 0.00 in0.0 mm 0.00 in0.0 mm
06:30 AM 47.1°F8.4°C 43.4°F6.3°C 87% 8.0 mph S12.9 kmh S 15.0 mph24.1 kmh 29.57 in1001.4 mb 0.00 in0.0 mm 0.00 in0.0 mm 0.00 in0.0 mm
06:45 AM 47.1°F8.4°C 43.7°F6.5°C 88% 9.0 mph S14.5 kmh S 17.0 mph27.4 kmh 29.56 in1001.0 mb 0.00 in0.0 mm 0.00 in0.0 mm 0.00 in0.0 mm
07:00 AM 47.1°F8.4°C 43.7°F6.5°C 88% 10.0 mph S16.1 kmh S 21.0 mph33.8 kmh 29.56 in1001.0 mb 0.00 in0.0 mm 0.00 in0.0 mm 0.00 in0.0 mm
07:15 AM 46.6°F8.1°C 43.8°F6.6°C 90% 9.0 mph S14.5 kmh S 20.0 mph32.2 kmh 29.55 in1000.7 mb 0.01 in0.3 mm 0.04 in1.0 mm 0.01 in0.3 mm
07:30 AM 46.6°F8.1°C 44.1°F6.7°C 91% 9.0 mph S14.5 kmh S 19.0 mph30.6 kmh 29.55 in1000.7 mb 0.01 in0.3 mm 0.00 in0.0 mm 0.01 in0.3 mm
07:45 AM 46.6°F8.1°C 44.1°F6.7°C 91% 8.0 mph S12.9 kmh S 15.0 mph24.1 kmh 29.55 in1000.7 mb 0.01 in0.3 mm 0.00 in0.0 mm 0.01 in0.3 mm
08:00 AM 46.6°F8.1°C 44.1°F6.7°C 91% 10.0 mph S16.1 kmh S 18.0 mph29.0 kmh 29.54 in1000.3 mb 0.01 in0.3 mm 0.00 in0.0 mm 0.01 in0.3 mm
08:15 AM 46.6°F8.1°C 44.4°F6.9°C 92% 10.0 mph S16.1 kmh S 16.0 mph25.7 kmh 29.54 in1000.3 mb 0.00 in0.0 mm 0.00 in0.0 mm 0.01 in0.3 mm
08:30 AM 46.6°F8.1°C 44.4°F6.9°C 92% 8.0 mph S12.9 kmh S 15.0 mph24.1 kmh 29.54 in1000.3 mb 0.00 in0.0 mm 0.00 in0.0 mm 0.01 in0.3 mm
08:45 AM 46.0°F7.8°C 43.8°F6.6°C 92% 7.0 mph W11.3 kmh W 16.0 mph25.7 kmh 29.55 in1000.7 mb 0.06 in1.5 mm 0.24 in6.1 mm 0.07 in1.8 mm
09:00 AM 45.1°F7.3°C 43.0°F6.1°C 92% 8.0 mph W12.9 kmh W 16.0 mph25.7 kmh 29.55 in1000.7 mb 0.08 in2.0 mm 0.03 in0.8 mm 0.09 in2.3 mm
09:15 AM 44.8°F7.1°C 42.9°F6.1°C 93% 9.0 mph W14.5 kmh W 18.0 mph29.0 kmh 29.56 in1001.0 mb 0.09 in2.3 mm 0.04 in1.0 mm 0.10 in2.5 mm
09:30 AM 44.8°F7.1°C 42.9°F6.1°C 93% 6.0 mph W9.7 kmh W 13.0 mph20.9 kmh 29.56 in1001.0 mb 0.09 in2.3 mm 0.00 in0.0 mm 0.10 in2.5 mm
09:45 AM 44.6°F7.0°C 42.7°F5.9°C 93% 6.0 mph W9.7 kmh W 14.0 mph22.5 kmh 29.56 in1001.0 mb 0.02 in0.5 mm 0.00 in0.0 mm 0.10 in2.5 mm
10:00 AM 44.4°F6.9°C 42.5°F5.8°C 93% 4.0 mph WSW6.4 kmh WSW 12.0 mph19.3 kmh 29.56 in1001.0 mb 0.02 in0.5 mm 0.00 in0.0 mm 0.11 in2.8 mm
10:15 AM 44.2°F6.8°C 42.3°F5.7°C 93% 3.0 mph SW4.8 kmh SW 8.0 mph12.9 kmh 29.56 in1001.0 mb 0.02 in0.5 mm 0.00 in0.0 mm 0.12 in3.0 mm
10:30 AM 44.2°F6.8°C 42.6°F5.9°C 94% 5.0 mph SW8.0 kmh SW 12.0 mph19.3 kmh 29.55 in1000.7 mb 0.02 in0.5 mm 0.00 in0.0 mm 0.12 in3.0 mm
10:45 AM 43.9°F6.6°C 42.3°F5.7°C 94% 7.0 mph W11.3 kmh W 17.0 mph27.4 kmh 29.56 in1001.0 mb 0.03 in0.8 mm 0.04 in1.0 mm 0.13 in3.3 mm
11:00 AM 43.5°F6.4°C 41.6°F5.3°C 93% 3.0 mph WSW4.8 kmh WSW 9.0 mph14.5 kmh 29.56 in1001.0 mb 0.03 in0.8 mm 0.00 in0.0 mm 0.14 in3.6 mm
11:15 AM 43.9°F6.6°C 42.0°F5.6°C 93% 4.0 mph WSW6.4 kmh WSW 12.0 mph19.3 kmh 29.55 in1000.7 mb 0.02 in0.5 mm 0.00 in0.0 mm 0.14 in3.6 mm
11:30 AM 43.9°F6.6°C 42.0°F5.6°C 93% 5.0 mph W8.0 kmh W 14.0 mph22.5 kmh 29.55 in1000.7 mb 0.03 in0.8 mm 0.04 in1.0 mm 0.15 in3.8 mm
11:45 AM 43.5°F6.4°C 41.6°F5.3°C 93% 6.0 mph W9.7 kmh W 15.0 mph24.1 kmh 29.55 in1000.7 mb 0.03 in0.8 mm 0.00 in0.0 mm 0.16 in4.1 mm
12:00 PM 43.0°F6.1°C 41.1°F5.1°C 93% 8.0 mph W12.9 kmh W 14.0 mph22.5 kmh 29.56 in1001.0 mb 0.06 in1.5 mm 0.04 in1.0 mm 0.20 in5.1 mm
12:15 PM 42.8°F6.0°C 40.6°F4.8°C 92% 5.0 mph NW8.0 kmh NW 11.0 mph17.7 kmh 29.56 in1001.0 mb 0.06 in1.5 mm 0.00 in0.0 mm 0.20 in5.1 mm
12:30 PM 42.6°F5.9°C 40.5°F4.7°C 92% 4.0 mph NW6.4 kmh NW 8.0 mph12.9 kmh 29.55 in1000.7 mb 0.06 in1.5 mm 0.00 in0.0 mm 0.21 in5.3 mm
12:45 PM 42.8°F6.0°C 40.9°F4.9°C 93% 3.0 mph WNW4.8 kmh WNW 11.0 mph17.7 kmh 29.56 in1001.0 mb 0.07 in1.8 mm 0.04 in1.0 mm 0.23 in5.8 mm
01:00 PM 41.4°F5.2°C 39.2°F4.0°C 92% 4.0 mph WNW6.4 kmh WNW 7.0 mph11.3 kmh 29.55 in1000.7 mb 0.05 in1.3 mm 0.00 in0.0 mm 0.25 in6.4 mm
01:15 PM 41.9°F5.5°C 40.0°F4.4°C 93% 3.0 mph WSW4.8 kmh WSW 8.0 mph12.9 kmh 29.55 in1000.7 mb 0.05 in1.3 mm 0.00 in0.0 mm 0.25 in6.4 mm
01:30 PM 42.1°F5.6°C 40.2°F4.6°C 93% 3.0 mph WSW4.8 kmh WSW 8.0 mph12.9 kmh 29.54 in1000.3 mb 0.05 in1.3 mm 0.00 in0.0 mm 0.26 in6.6 mm
01:45 PM 42.3°F5.7°C 40.4°F4.7°C 93% 1.0 mph WSW1.6 kmh WSW 4.0 mph6.4 kmh 29.54 in1000.3 mb 0.03 in0.8 mm 0.00 in0.0 mm 0.26 in6.6 mm
02:00 PM 42.3°F5.7°C 40.4°F4.7°C 93% 3.0 mph SSW4.8 kmh SSW 6.0 mph9.7 kmh 29.53 in1000.0 mb 0.01 in0.3 mm 0.00 in0.0 mm 0.26 in6.6 mm
02:15 PM 42.4°F5.8°C 40.6°F4.8°C 93% 3.0 mph SW4.8 kmh SW 7.0 mph11.3 kmh 29.53 in1000.0 mb 0.01 in0.3 mm 0.00 in0.0 mm 0.26 in6.6 mm
02:30 PM 42.8°F6.0°C 41.2°F5.1°C 94% 2.0 mph SW3.2 kmh SW 6.0 mph9.7 kmh 29.53 in1000.0 mb 0.00 in0.0 mm 0.00 in0.0 mm 0.26 in6.6 mm
02:45 PM 43.0°F6.1°C 41.1°F5.1°C 93% 2.0 mph SW3.2 kmh SW 6.0 mph9.7 kmh 29.53 in1000.0 mb 0.00 in0.0 mm 0.00 in0.0 mm 0.26 in6.6 mm
03:00 PM 43.0°F6.1°C 41.1°F5.1°C 93% 3.0 mph SW4.8 kmh SW 8.0 mph12.9 kmh 29.53 in1000.0 mb 0.00 in0.0 mm 0.00 in0.0 mm 0.26 in6.6 mm
03:15 PM 43.2°F6.2°C 41.3°F5.2°C 93% 3.0 mph WSW4.8 kmh WSW 7.0 mph11.3 kmh 29.53 in1000.0 mb 0.00 in0.0 mm 0.00 in0.0 mm 0.26 in6.6 mm
03:30 PM 42.8°F6.0°C 40.9°F4.9°C 93% 3.0 mph WSW4.8 kmh WSW 9.0 mph14.5 kmh 29.53 in1000.0 mb 0.00 in0.0 mm 0.00 in0.0 mm 0.26 in6.6 mm
03:45 PM 42.6°F5.9°C 40.2°F4.6°C 91% 4.0 mph WSW6.4 kmh WSW 8.0 mph12.9 kmh 29.53 in1000.0 mb 0.00 in0.0 mm 0.00 in0.0 mm 0.26 in6.6 mm
04:00 PM 42.6°F5.9°C 40.2°F4.6°C 91% 4.0 mph SW6.4 kmh SW 11.0 mph17.7 kmh 29.53 in1000.0 mb 0.00 in0.0 mm 0.00 in0.0 mm 0.26 in6.6 mm
04:15 PM 42.4°F5.8°C 39.7°F4.3°C 90% 4.0 mph W6.4 kmh W 9.0 mph14.5 kmh 29.53 in1000.0 mb 0.00 in0.0 mm 0.00 in0.0 mm 0.26 in6.6 mm
04:30 PM 42.1°F5.6°C 38.8°F3.8°C 88% 7.0 mph WNW11.3 kmh WNW 14.0 mph22.5 kmh 29.53 in1000.0 mb 0.00 in0.0 mm 0.00 in0.0 mm 0.26 in6.6 mm
04:45 PM 41.7°F5.4°C 38.7°F3.7°C 89% 4.0 mph W6.4 kmh W 8.0 mph12.9 kmh 29.53 in1000.0 mb 0.00 in0.0 mm 0.00 in0.0 mm 0.26 in6.6 mm
05:00 PM 41.2°F5.1°C 38.2°F3.4°C 89% 8.0 mph NW12.9 kmh NW 14.0 mph22.5 kmh 29.54 in1000.3 mb 0.00 in0.0 mm 0.00 in0.0 mm 0.26 in6.6 mm
05:15 PM 40.5°F4.7°C 37.8°F3.2°C 90% 5.0 mph W8.0 kmh W 12.0 mph19.3 kmh 29.53 in1000.0 mb 0.02 in0.5 mm 0.08 in2.0 mm 0.28 in7.1 mm
05:30 PM 40.5°F4.7°C 38.0°F3.3°C 91% 3.0 mph SW4.8 kmh SW 8.0 mph12.9 kmh 29.53 in1000.0 mb 0.03 in0.8 mm 0.04 in1.0 mm 0.29 in7.4 mm
05:45 PM 40.5°F4.7°C 38.3°F3.5°C 92% 4.0 mph WSW6.4 kmh WSW 12.0 mph19.3 kmh 29.53 in1000.0 mb 0.04 in1.0 mm 0.04 in1.0 mm 0.30 in7.6 mm
06:00 PM 40.5°F4.7°C 38.0°F3.3°C 91% 2.0 mph SSW3.2 kmh SSW 7.0 mph11.3 kmh 29.53 in1000.0 mb 0.04 in1.0 mm 0.00 in0.0 mm 0.30 in7.6 mm
06:15 PM 39.9°F4.4°C 37.5°F3.1°C 91% 3.0 mph SSW4.8 kmh SSW 7.0 mph11.3 kmh 29.52 in999.7 mb 0.02 in0.5 mm 0.00 in0.0 mm 0.30 in7.6 mm
06:30 PM 39.4°F4.1°C 37.2°F2.9°C 92% 3.0 mph S4.8 kmh S 7.0 mph11.3 kmh 29.52 in999.7 mb 0.01 in0.3 mm 0.00 in0.0 mm 0.30 in7.6 mm
06:45 PM 39.0°F3.9°C 36.9°F2.7°C 92% 5.0 mph S8.0 kmh S 9.0 mph14.5 kmh 29.52 in999.7 mb 0.00 in0.0 mm 0.00 in0.0 mm 0.30 in7.6 mm
07:00 PM 38.7°F3.7°C 36.5°F2.5°C 92% 4.0 mph SSW6.4 kmh SSW 9.0 mph14.5 kmh 29.52 in999.7 mb 0.00 in0.0 mm 0.00 in0.0 mm 0.30 in7.6 mm
07:15 PM 38.5°F3.6°C 36.4°F2.4°C 92% 5.0 mph S8.0 kmh S 10.0 mph16.1 kmh 29.52 in999.7 mb 0.00 in0.0 mm 0.00 in0.0 mm 0.30 in7.6 mm
07:30 PM 38.1°F3.4°C 36.0°F2.2°C 92% 4.0 mph SW6.4 kmh SW 9.0 mph14.5 kmh 29.52 in999.7 mb 0.00 in0.0 mm 0.00 in0.0 mm 0.30 in7.6 mm
07:45 PM 37.9°F3.3°C 35.8°F2.1°C 92% 2.0 mph SSW3.2 kmh SSW 6.0 mph9.7 kmh 29.52 in999.7 mb 0.00 in0.0 mm 0.00 in0.0 mm 0.30 in7.6 mm
08:00 PM 37.8°F3.2°C 35.6°F2.0°C 92% 2.0 mph SSW3.2 kmh SSW 5.0 mph8.0 kmh 29.53 in1000.0 mb 0.00 in0.0 mm 0.00 in0.0 mm 0.30 in7.6 mm
08:15 PM 37.9°F3.3°C 35.8°F2.1°C 92% 2.0 mph S3.2 kmh S 4.0 mph6.4 kmh 29.54 in1000.3 mb 0.00 in0.0 mm 0.00 in0.0 mm 0.30 in7.6 mm
08:30 PM 37.9°F3.3°C 35.8°F2.1°C 92% 1.0 mph S1.6 kmh S 3.0 mph4.8 kmh 29.54 in1000.3 mb 0.00 in0.0 mm 0.00 in0.0 mm 0.30 in7.6 mm
08:45 PM 38.1°F3.4°C 36.3°F2.4°C 93% 1.0 mph SW1.6 kmh SW 5.0 mph8.0 kmh 29.54 in1000.3 mb 0.00 in0.0 mm 0.00 in0.0 mm 0.30 in7.6 mm
09:00 PM 38.5°F3.6°C 36.6°F2.6°C 93% 3.0 mph WNW4.8 kmh WNW 7.0 mph11.3 kmh 29.55 in1000.7 mb 0.01 in0.3 mm 0.01 in0.3 mm 0.31 in7.9 mm
09:15 PM 38.8°F3.8°C 37.0°F2.8°C 93% 3.0 mph WNW4.8 kmh WNW 7.0 mph11.3 kmh 29.55 in1000.7 mb 0.02 in0.5 mm 0.04 in1.0 mm 0.32 in8.1 mm
09:30 PM 39.0°F3.9°C 37.2°F2.9°C 93% 3.0 mph W4.8 kmh W 8.0 mph12.9 kmh 29.55 in1000.7 mb 0.02 in0.5 mm 0.00 in0.0 mm 0.32 in8.1 mm
09:45 PM 39.2°F4.0°C 37.3°F2.9°C 93% 2.0 mph WSW3.2 kmh WSW 6.0 mph9.7 kmh 29.55 in1000.7 mb 0.02 in0.5 mm 0.00 in0.0 mm 0.32 in8.1 mm
10:00 PM 39.0°F3.9°C 37.2°F2.9°C 93% 3.0 mph WSW4.8 kmh WSW 10.0 mph16.1 kmh 29.55 in1000.7 mb 0.01 in0.3 mm 0.00 in0.0 mm 0.32 in8.1 mm
10:15 PM 38.8°F3.8°C 37.0°F2.8°C 93% 4.0 mph SW6.4 kmh SW 8.0 mph12.9 kmh 29.55 in1000.7 mb 0.00 in0.0 mm 0.00 in0.0 mm 0.32 in8.1 mm
10:30 PM 38.7°F3.7°C 36.8°F2.7°C 93% 3.0 mph SW4.8 kmh SW 6.0 mph9.7 kmh 29.56 in1001.0 mb 0.00 in0.0 mm 0.00 in0.0 mm 0.32 in8.1 mm
10:45 PM 38.5°F3.6°C 36.9°F2.7°C 94% 3.0 mph SW4.8 kmh SW 8.0 mph12.9 kmh 29.56 in1001.0 mb 0.00 in0.0 mm 0.00 in0.0 mm 0.32 in8.1 mm
11:00 PM 38.3°F3.5°C 36.5°F2.5°C 93% 4.0 mph SW6.4 kmh SW 9.0 mph14.5 kmh 29.56 in1001.0 mb 0.00 in0.0 mm 0.00 in0.0 mm 0.32 in8.1 mm
11:15 PM 38.1°F3.4°C 36.5°F2.5°C 94% 2.0 mph SW3.2 kmh SW 7.0 mph11.3 kmh 29.57 in1001.4 mb 0.00 in0.0 mm 0.00 in0.0 mm 0.32 in8.1 mm
11:30 PM 38.1°F3.4°C 36.5°F2.5°C 94% 3.0 mph SW4.8 kmh SW 6.0 mph9.7 kmh 29.57 in1001.4 mb 0.00 in0.0 mm 0.00 in0.0 mm 0.32 in8.1 mm
11:45 PM 37.9°F3.3°C 36.4°F2.4°C 94% 2.0 mph SW3.2 kmh SW 7.0 mph11.3 kmh 29.58 in1001.7 mb 0.00 in0.0 mm 0.00 in0.0 mm 0.32 in8.1 mm